createdAt,value
2023-04-22T00:00:51.919Z,58.86
2023-04-22T00:03:23.469Z,58.93
2023-04-22T00:05:52.325Z,58.88
2023-04-22T00:08:22.208Z,58.93
2023-04-22T00:10:53.314Z,58.84
2023-04-22T00:13:21.589Z,58.83
2023-04-22T00:15:49.948Z,58.89
2023-04-22T00:18:18.511Z,58.85
2023-04-22T00:20:47.154Z,59.03
2023-04-22T00:23:15.973Z,59.20
2023-04-22T00:25:44.220Z,59.36
2023-04-22T00:28:12.533Z,59.57
2023-04-22T00:30:40.984Z,59.64
2023-04-22T00:33:10.273Z,59.86
2023-04-22T00:35:40.022Z,59.97
2023-04-22T00:38:11.577Z,60.05
2023-04-22T00:40:41.751Z,60.10
2023-04-22T00:43:10.006Z,60.10
2023-04-22T00:45:38.161Z,60.11
2023-04-22T00:48:06.692Z,60.16
2023-04-22T00:50:36.294Z,60.24
2023-04-22T00:53:04.540Z,60.36
2023-04-22T00:55:34.370Z,60.52
2023-04-22T00:58:03.750Z,60.65
2023-04-22T01:00:32.183Z,60.65
2023-04-22T01:03:01.119Z,60.63
2023-04-22T01:05:32.752Z,60.75
2023-04-22T01:08:01.427Z,61.12
2023-04-22T01:10:30.355Z,61.32
2023-04-22T01:12:58.691Z,61.35
2023-04-22T01:15:29.207Z,61.28
2023-04-22T01:17:57.634Z,61.20
2023-04-22T01:20:28.329Z,61.14
2023-04-22T01:22:57.905Z,61.06
2023-04-22T01:25:26.936Z,61.24
2023-04-22T01:27:56.937Z,61.26
2023-04-22T01:30:25.250Z,61.39
2023-04-22T01:32:53.747Z,61.44
2023-04-22T01:35:22.630Z,61.43
2023-04-22T01:37:51.358Z,61.43
2023-04-22T01:40:20.257Z,61.51
2023-04-22T01:42:48.789Z,61.30
2023-04-22T01:45:18.090Z,61.24
2023-04-22T01:47:46.499Z,61.21
2023-04-22T01:50:15.252Z,61.16
2023-04-22T01:52:43.893Z,61.08
2023-04-22T01:55:12.059Z,61.09
2023-04-22T01:57:40.707Z,61.29
2023-04-22T02:00:09.620Z,61.38
2023-04-22T02:02:41.751Z,61.49
2023-04-22T02:05:10.319Z,61.58
2023-04-22T02:07:41.254Z,61.70
2023-04-22T02:10:10.053Z,61.66
2023-04-22T02:12:38.957Z,61.82
2023-04-22T02:15:08.718Z,61.81
2023-04-22T02:17:38.710Z,61.79
2023-04-22T02:20:07.742Z,61.79
2023-04-22T02:22:37.516Z,61.92
2023-04-22T02:25:06.475Z,61.91
2023-04-22T02:27:35.395Z,61.87
2023-04-22T02:30:04.347Z,62.04
2023-04-22T02:32:34.058Z,62.22
2023-04-22T02:35:03.545Z,62.42
2023-04-22T02:37:32.135Z,62.46
2023-04-22T02:40:00.849Z,62.52
2023-04-22T02:42:29.414Z,62.57
2023-04-22T02:44:59.235Z,62.68
2023-04-22T02:47:28.251Z,62.66
2023-04-22T02:49:56.703Z,62.92
2023-04-22T02:52:24.966Z,62.99
2023-04-22T02:54:53.304Z,63.09
2023-04-22T02:57:22.959Z,63.26
2023-04-22T02:59:51.369Z,63.24
2023-04-22T03:02:21.593Z,63.38
2023-04-22T03:05:18.964Z,63.49
2023-04-22T03:07:49.570Z,63.52
2023-04-22T03:10:20.215Z,63.70
2023-04-22T03:12:49.294Z,63.75
2023-04-22T03:15:21.089Z,63.51
2023-04-22T03:17:54.969Z,63.49
2023-04-22T03:20:25.491Z,63.49
2023-04-22T03:22:58.561Z,63.67
2023-04-22T03:25:29.340Z,63.67
2023-04-22T03:27:58.314Z,63.65
2023-04-22T03:30:26.910Z,63.57
2023-04-22T03:32:58.541Z,63.58
2023-04-22T03:35:50.289Z,63.18
2023-04-22T03:38:20.760Z,63.09
2023-04-22T03:40:51.470Z,62.86
2023-04-22T03:43:27.566Z,62.90
2023-04-22T03:46:04.074Z,62.95
2023-04-22T03:48:36.256Z,62.75
2023-04-22T03:51:09.749Z,62.53
2023-04-22T03:53:39.385Z,62.22
2023-04-22T03:56:13.088Z,62.05
2023-04-22T03:58:43.607Z,61.62
2023-04-22T04:01:12.122Z,61.44
2023-04-22T04:03:42.260Z,61.13
2023-04-22T04:06:14.353Z,60.82
2023-04-22T04:08:50.606Z,60.63
2023-04-22T04:11:22.567Z,60.25
2023-04-22T04:13:55.370Z,59.71
2023-04-22T04:16:36.239Z,59.07
2023-04-22T04:19:15.679Z,58.63
2023-04-22T04:21:46.951Z,58.20
2023-04-22T04:24:18.665Z,57.96
2023-04-22T04:26:54.033Z,57.72
2023-04-22T04:29:33.157Z,57.48
2023-04-22T04:32:11.218Z,57.11
2023-04-22T04:34:41.075Z,56.42
2023-04-22T04:37:13.777Z,55.96
2023-04-22T04:40:08.140Z,55.31
2023-04-22T04:42:45.843Z,54.76
2023-04-22T04:45:20.020Z,54.34
2023-04-22T04:48:04.597Z,54.05
2023-04-22T04:50:37.609Z,53.43
2023-04-22T04:53:07.760Z,53.28
2023-04-22T04:55:48.530Z,53.24
2023-04-22T04:58:44.585Z,52.74
2023-04-22T05:01:22.557Z,52.49
2023-04-22T05:03:56.727Z,52.08
2023-04-22T05:06:37.388Z,52.31
2023-04-22T05:09:08.478Z,52.25
2023-04-22T05:11:42.674Z,52.31
2023-04-22T05:14:24.014Z,51.62
2023-04-22T05:17:01.655Z,50.07
2023-04-22T05:19:50.352Z,48.60
2023-04-22T05:22:46.925Z,48.23
2023-04-22T05:25:47.940Z,46.82
2023-04-22T05:28:16.392Z,46.16
2023-04-22T05:30:56.361Z,45.52
2023-04-22T05:33:42.595Z,45.07
2023-04-22T05:37:13.815Z,44.74
2023-04-22T05:39:47.141Z,44.13
2023-04-22T05:42:18.184Z,43.72
2023-04-22T05:44:46.755Z,43.52
2023-04-22T05:47:20.355Z,43.59
2023-04-22T05:49:55.282Z,43.48
2023-04-22T05:52:52.561Z,43.32
2023-04-22T05:55:23.262Z,42.95
2023-04-22T06:47:35.776Z,39.41
2023-04-22T06:54:43.814Z,38.94
2023-04-22T07:10:27.441Z,36.90
2023-04-22T07:13:29.464Z,35.78
2023-04-22T07:31:28.703Z,34.41
2023-04-22T07:34:00.626Z,34.85
2023-04-22T07:36:35.354Z,34.76
2023-04-22T07:39:04.605Z,34.43
2023-04-22T07:44:42.540Z,34.54
2023-04-22T07:47:11.927Z,34.60
2023-04-22T07:49:41.324Z,34.17
2023-04-22T07:52:30.186Z,34.90
2023-04-22T07:57:48.154Z,34.96
2023-04-22T08:00:18.349Z,35.27
2023-04-22T08:03:10.758Z,35.48
2023-04-22T08:05:49.961Z,35.55
2023-04-22T10:38:10.199Z,27.80
2023-04-22T10:40:58.784Z,26.44
2023-04-22T10:43:52.031Z,26.60
2023-04-22T10:46:34.337Z,26.13
2023-04-22T10:49:23.654Z,25.94
2023-04-22T10:52:34.040Z,25.15
2023-04-22T10:55:02.982Z,25.32
2023-04-22T11:29:17.235Z,23.13
2023-04-22T11:33:02.537Z,23.01
2023-04-22T11:40:29.860Z,22.46
2023-04-22T11:43:04.594Z,22.78
2023-04-22T11:45:35.012Z,22.28
2023-04-22T11:48:27.029Z,22.21
2023-04-22T11:51:14.022Z,21.97
2023-04-22T11:53:49.911Z,22.18
2023-04-22T12:24:14.127Z,22.32
2023-04-22T12:26:31.771Z,21.65
2023-04-22T12:39:52.122Z,21.30
2023-04-22T12:42:39.109Z,21.19
2023-04-22T12:49:14.591Z,21.25
2023-04-22T12:51:41.407Z,20.75
2023-04-22T13:37:47.280Z,21.75
2023-04-22T13:40:15.237Z,21.40
2023-04-22T13:42:44.812Z,21.12
2023-04-22T13:45:12.344Z,20.95
2023-04-22T13:47:42.950Z,20.66
2023-04-22T13:50:14.986Z,20.64
2023-04-22T13:52:49.392Z,20.93
2023-04-22T13:55:20.777Z,21.06
2023-04-22T13:57:53.046Z,20.90
2023-04-22T14:00:20.956Z,21.37
2023-04-22T14:02:52.588Z,20.99
2023-04-22T14:05:24.580Z,21.05
2023-04-22T14:11:11.447Z,22.02
2023-04-22T14:13:44.858Z,21.92
2023-04-22T14:16:12.272Z,21.94
2023-04-22T14:18:39.922Z,21.55
2023-04-22T14:21:11.758Z,21.82
2023-04-22T14:23:39.626Z,21.18
2023-04-22T14:26:09.878Z,21.07
2023-04-22T14:28:38.126Z,21.22
2023-04-22T14:31:08.221Z,21.08
2023-04-22T14:33:36.451Z,20.27
2023-04-22T14:36:04.281Z,19.27
2023-04-22T14:38:33.383Z,18.50
2023-04-22T14:41:07.285Z,17.24
2023-04-22T14:43:34.586Z,17.02
2023-04-22T14:46:01.695Z,17.26
2023-04-22T14:48:31.892Z,17.12
2023-04-22T14:50:59.696Z,16.85
2023-04-22T14:53:27.952Z,17.21
2023-04-22T14:55:56.212Z,17.22
2023-04-22T14:58:23.883Z,16.87
2023-04-22T15:00:54.929Z,17.18
2023-04-22T15:03:22.573Z,16.97
2023-04-22T15:05:49.684Z,16.68
2023-04-22T15:08:17.687Z,16.64
2023-04-22T15:10:45.592Z,16.74
2023-04-22T15:13:15.456Z,16.51
2023-04-22T15:15:42.378Z,16.60
2023-04-22T15:18:10.059Z,16.65
2023-04-22T15:20:37.013Z,16.66
2023-04-22T15:23:03.950Z,17.02
2023-04-22T15:25:31.409Z,17.03
2023-04-22T15:27:59.476Z,16.79
2023-04-22T15:30:26.907Z,16.65
2023-04-22T15:32:55.041Z,16.64
2023-04-22T15:35:23.276Z,16.49
2023-04-22T15:37:50.394Z,16.53
2023-04-22T15:40:17.792Z,16.33
2023-04-22T15:42:45.018Z,16.52
2023-04-22T15:45:11.853Z,16.45
2023-04-22T15:47:41.283Z,16.64
2023-04-22T15:50:10.321Z,16.38
2023-04-22T15:52:38.028Z,16.43
2023-04-22T15:55:06.103Z,16.47
2023-04-22T15:57:34.184Z,16.35
2023-04-22T16:00:11.057Z,16.06
2023-04-22T16:02:44.455Z,15.79
2023-04-22T16:05:12.259Z,16.13
2023-04-22T16:07:40.406Z,15.85
2023-04-22T16:10:08.918Z,16.00
2023-04-22T16:12:36.173Z,16.38
2023-04-22T16:15:03.754Z,16.67
2023-04-22T16:17:31.633Z,16.48
2023-04-22T16:19:58.858Z,16.91
2023-04-22T16:22:26.295Z,17.05
2023-04-22T16:24:53.325Z,18.01
2023-04-22T16:27:20.484Z,18.94
2023-04-22T16:29:47.903Z,19.90
2023-04-22T16:32:15.137Z,19.81
2023-04-22T16:34:43.162Z,19.87
2023-04-22T16:37:10.137Z,19.39
2023-04-22T16:39:38.532Z,18.83
2023-04-22T16:42:06.189Z,18.79
2023-04-22T16:44:33.348Z,19.08
2023-04-22T16:47:00.232Z,19.26
2023-04-22T16:49:27.193Z,19.57
2023-04-22T16:51:54.009Z,19.91
2023-04-22T16:54:21.634Z,20.29
2023-04-22T16:56:48.502Z,20.89
2023-04-22T16:59:15.617Z,21.10
2023-04-22T17:01:42.809Z,21.29
2023-04-22T17:04:11.014Z,21.71
2023-04-22T17:06:39.945Z,22.04
2023-04-22T17:09:09.211Z,22.23
2023-04-22T17:11:36.192Z,22.73
2023-04-22T17:14:06.039Z,22.81
2023-04-22T17:16:33.198Z,22.96
2023-04-22T17:19:00.193Z,23.16
2023-04-22T17:21:27.639Z,23.39
2023-04-22T17:24:01.924Z,23.86
2023-04-22T17:26:29.283Z,24.33
2023-04-22T17:28:56.258Z,24.96
2023-04-22T17:31:25.028Z,25.36
2023-04-22T17:33:51.899Z,26.43
2023-04-22T17:36:19.980Z,27.67
2023-04-22T17:38:47.173Z,28.35
2023-04-22T17:41:14.769Z,27.88
2023-04-22T17:43:41.831Z,27.90
2023-04-22T17:46:09.184Z,27.89
2023-04-22T17:48:37.126Z,27.74
2023-04-22T17:51:06.141Z,27.79
2023-04-22T17:53:35.406Z,28.30
2023-04-22T17:56:02.602Z,28.56
2023-04-22T17:58:29.846Z,28.85
2023-04-22T18:00:58.416Z,29.19
2023-04-22T18:03:26.450Z,30.02
2023-04-22T18:05:53.508Z,30.15
2023-04-22T18:08:20.418Z,30.34
2023-04-22T18:10:47.272Z,31.52
2023-04-22T18:13:14.456Z,31.64
2023-04-22T18:15:41.505Z,32.49
2023-04-22T18:18:08.309Z,33.49
2023-04-22T18:20:35.138Z,33.81
2023-04-22T18:23:03.200Z,34.08
2023-04-22T18:25:33.195Z,34.47
2023-04-22T18:28:00.209Z,34.94
2023-04-22T18:30:29.848Z,35.31
2023-04-22T18:32:58.160Z,35.81
2023-04-22T18:35:25.928Z,35.59
2023-04-22T18:37:52.773Z,35.70
2023-04-22T18:40:20.675Z,35.77
2023-04-22T18:42:47.450Z,36.45
2023-04-22T18:45:16.050Z,36.89
2023-04-22T18:47:45.068Z,36.94
2023-04-22T18:50:12.566Z,36.98
2023-04-22T18:52:39.648Z,37.16
2023-04-22T18:55:06.888Z,37.69
2023-04-22T18:57:34.185Z,37.92
2023-04-22T19:00:02.058Z,38.16
2023-04-22T19:02:29.813Z,38.66
2023-04-22T19:04:57.277Z,38.66
2023-04-22T19:07:24.861Z,38.90
2023-04-22T19:10:11.405Z,39.16
2023-04-22T19:12:40.076Z,39.43
2023-04-22T19:15:07.948Z,40.11
2023-04-22T19:17:38.790Z,40.50
2023-04-22T19:20:09.504Z,41.06
2023-04-22T19:22:44.400Z,41.49
2023-04-22T19:25:15.489Z,41.58
2023-04-22T19:27:43.283Z,41.94
2023-04-22T19:30:17.186Z,42.34
2023-04-22T19:32:53.726Z,42.64
2023-04-22T19:35:27.991Z,42.91
2023-04-22T19:37:59.430Z,43.16
2023-04-22T19:40:28.290Z,43.85
2023-04-22T19:42:57.898Z,44.52
2023-04-22T19:45:29.501Z,44.85
2023-04-22T19:50:54.982Z,44.01
2023-04-22T19:53:23.017Z,43.66
2023-04-22T19:55:54.181Z,43.46
2023-04-22T19:58:25.959Z,43.64
2023-04-22T20:01:00.351Z,43.17
2023-04-22T20:03:33.953Z,42.98
2023-04-22T20:06:01.063Z,42.96
2023-04-22T20:08:33.616Z,43.38
2023-04-22T20:11:01.473Z,43.86
2023-04-22T20:13:30.100Z,44.40
2023-04-22T20:15:59.068Z,44.73
2023-04-22T20:18:29.958Z,44.84
2023-04-22T20:20:58.074Z,45.05
2023-04-22T20:23:28.664Z,45.20
2023-04-22T20:25:55.988Z,45.54
2023-04-22T20:29:00.639Z,46.09
2023-04-22T20:31:29.143Z,46.52
2023-04-22T20:33:59.234Z,46.39
2023-04-22T20:36:36.458Z,46.59
2023-04-22T20:39:05.531Z,46.92
2023-04-22T20:41:37.810Z,47.27
2023-04-22T20:44:05.618Z,47.58
2023-04-22T20:46:35.279Z,47.74
2023-04-22T20:49:07.855Z,47.80
2023-04-22T20:51:36.234Z,47.76
2023-04-22T20:54:09.792Z,47.76
2023-04-22T20:56:49.179Z,47.76
2023-04-22T20:59:16.171Z,47.68
2023-04-22T21:01:44.529Z,47.63
2023-04-22T21:04:11.693Z,48.04
2023-04-22T21:06:40.132Z,48.35
2023-04-22T21:09:07.794Z,48.25
2023-04-22T21:11:35.134Z,48.46
2023-04-22T21:14:05.222Z,48.66
2023-04-22T21:16:47.120Z,48.93
2023-04-22T21:19:14.509Z,49.45
2023-04-22T21:21:41.320Z,49.46
2023-04-22T21:24:09.100Z,49.60
2023-04-22T21:26:37.080Z,49.71
2023-04-22T21:29:04.291Z,50.12
2023-04-22T21:31:33.646Z,50.57
2023-04-22T21:34:04.081Z,50.88
2023-04-22T21:36:32.193Z,51.10
2023-04-22T21:38:59.523Z,51.17
2023-04-22T21:41:26.429Z,51.46
2023-04-22T21:43:55.073Z,51.62
2023-04-22T21:46:23.854Z,51.58
2023-04-22T21:48:50.712Z,51.55
2023-04-22T21:51:17.493Z,51.59
2023-04-22T21:53:44.404Z,51.74
2023-04-22T21:56:11.352Z,51.66
2023-04-22T21:58:38.955Z,51.52
2023-04-22T22:01:05.783Z,51.51
2023-04-22T22:03:33.020Z,51.54
2023-04-22T22:06:00.055Z,51.86
2023-04-22T22:08:27.035Z,52.27
2023-04-22T22:10:53.833Z,52.76
2023-04-22T22:13:20.649Z,52.84
2023-04-22T22:15:47.393Z,53.06
2023-04-22T22:18:14.173Z,53.05
2023-04-22T22:20:41.460Z,53.01
2023-04-22T22:23:08.204Z,53.02
2023-04-22T22:25:34.932Z,53.08
2023-04-22T22:28:03.914Z,53.24
2023-04-22T22:30:30.850Z,53.12
2023-04-22T22:32:57.830Z,53.22
2023-04-22T22:35:24.533Z,53.20
2023-04-22T22:37:51.507Z,53.14
2023-04-22T22:40:18.408Z,53.23
2023-04-22T22:42:45.383Z,53.27
2023-04-22T22:45:12.248Z,53.56
2023-04-22T22:47:39.109Z,54.16
2023-04-22T22:50:24.160Z,54.71
2023-04-22T22:52:50.908Z,55.10
2023-04-22T22:55:17.644Z,55.52
2023-04-22T22:57:47.029Z,55.74
2023-04-22T23:00:14.215Z,56.17
2023-04-22T23:02:43.842Z,56.11
2023-04-22T23:05:10.968Z,56.41
2023-04-22T23:07:38.097Z,56.55
2023-04-22T23:10:05.555Z,56.63
2023-04-22T23:12:34.183Z,56.53
2023-04-22T23:15:01.078Z,56.50
2023-04-22T23:17:27.963Z,56.66
2023-04-22T23:19:55.351Z,56.77
2023-04-22T23:22:22.848Z,56.83
2023-04-22T23:24:49.977Z,57.02
2023-04-22T23:27:16.973Z,57.15
2023-04-22T23:29:44.172Z,57.20
2023-04-22T23:32:13.269Z,57.31
2023-04-22T23:34:40.480Z,57.24
2023-04-22T23:37:08.001Z,57.04
2023-04-22T23:39:35.517Z,56.65
2023-04-22T23:42:02.469Z,56.33
2023-04-22T23:44:29.871Z,56.11
2023-04-22T23:46:56.674Z,55.98
2023-04-22T23:49:23.531Z,55.90
2023-04-22T23:51:51.931Z,55.86
2023-04-22T23:54:21.707Z,55.76
2023-04-22T23:56:48.878Z,55.62
2023-04-22T23:59:16.031Z,55.54
